createdAt,value
2022-10-20T00:00:43.889Z,8.17
2022-10-20T00:03:47.981Z,8.43
2022-10-20T00:06:51.048Z,8.30
2022-10-20T00:09:54.104Z,9.07
2022-10-20T00:12:57.213Z,8.80
2022-10-20T00:16:01.987Z,8.13
2022-10-20T00:19:05.527Z,9.23
2022-10-20T00:22:08.763Z,9.30
2022-10-20T00:25:11.777Z,8.87
2022-10-20T00:28:14.981Z,8.40
2022-10-20T00:31:21.043Z,8.87
2022-10-20T00:34:24.137Z,8.40
2022-10-20T00:37:27.205Z,8.63
2022-10-20T00:40:30.306Z,8.73
2022-10-20T00:43:48.609Z,9.13
2022-10-20T00:46:53.558Z,9.63
2022-10-20T00:50:08.402Z,9.63
2022-10-20T00:53:12.449Z,9.27
2022-10-20T00:56:15.772Z,10.20
2022-10-20T00:59:23.009Z,10.90
2022-10-20T01:02:27.893Z,10.40
2022-10-20T01:05:31.101Z,9.93
2022-10-20T01:08:34.300Z,10.47
2022-10-20T01:11:44.083Z,10.67
2022-10-20T01:14:56.440Z,10.13
2022-10-20T01:18:09.919Z,11.20
2022-10-20T01:21:48.953Z,11.30
2022-10-20T01:25:07.632Z,11.63
2022-10-20T01:28:18.242Z,11.47
2022-10-20T01:31:30.818Z,10.83
2022-10-20T01:34:40.169Z,12.23
2022-10-20T01:37:49.560Z,11.73
2022-10-20T01:40:59.634Z,12.37
2022-10-20T01:44:07.102Z,12.47
2022-10-20T01:47:11.738Z,12.50
2022-10-20T01:50:16.948Z,11.97
2022-10-20T01:53:21.295Z,12.47
2022-10-20T01:56:31.215Z,14.00
2022-10-20T01:59:46.988Z,13.63
2022-10-20T02:03:13.434Z,13.83
2022-10-20T02:06:26.209Z,13.73
2022-10-20T02:09:37.760Z,14.47
2022-10-20T02:12:44.226Z,14.50
2022-10-20T02:15:52.628Z,14.33
2022-10-20T02:18:56.635Z,15.10
2022-10-20T02:21:59.845Z,14.47
2022-10-20T02:25:03.153Z,14.10
2022-10-20T02:28:10.160Z,15.50
2022-10-20T02:31:14.931Z,15.50
2022-10-20T02:34:18.034Z,15.27
2022-10-20T02:37:21.182Z,14.83
2022-10-20T02:40:24.822Z,15.97
2022-10-20T02:43:27.909Z,14.73
2022-10-20T02:46:32.502Z,15.47
2022-10-20T02:49:35.582Z,15.33
2022-10-20T02:52:38.681Z,15.33
2022-10-20T02:55:43.713Z,14.83
2022-10-20T02:58:46.790Z,14.57
2022-10-20T03:01:52.750Z,16.27
2022-10-20T03:04:55.868Z,17.40
2022-10-20T03:07:59.017Z,16.00
2022-10-20T03:11:02.109Z,16.23
2022-10-20T03:14:05.218Z,16.00
2022-10-20T03:17:09.886Z,16.17
2022-10-20T03:20:13.203Z,16.27
2022-10-20T03:23:17.840Z,15.50
2022-10-20T03:26:23.184Z,17.10
2022-10-20T03:29:26.259Z,14.87
2022-10-20T03:32:30.763Z,15.73
2022-10-20T03:35:34.165Z,16.70
2022-10-20T03:38:37.317Z,16.47
2022-10-20T03:41:40.443Z,16.23
2022-10-20T03:44:45.059Z,15.97
2022-10-20T03:47:49.961Z,17.00
2022-10-20T03:50:53.010Z,15.77
2022-10-20T03:53:56.080Z,17.03
2022-10-20T03:56:59.187Z,14.63
2022-10-20T04:00:02.242Z,16.93
2022-10-20T04:03:16.171Z,15.93
2022-10-20T04:06:19.407Z,15.77
2022-10-20T04:09:22.479Z,15.53
2022-10-20T04:12:26.498Z,15.03
2022-10-20T04:15:29.771Z,15.33
2022-10-20T04:18:34.253Z,16.33
2022-10-20T04:21:37.331Z,16.23
2022-10-20T04:24:40.573Z,15.73
2022-10-20T04:27:43.701Z,15.50
2022-10-20T04:30:47.811Z,15.03
2022-10-20T04:33:52.247Z,14.43
2022-10-20T04:36:55.308Z,14.80
2022-10-20T04:39:58.761Z,14.40
2022-10-20T04:43:01.892Z,14.20
2022-10-20T04:46:08.477Z,14.03
2022-10-20T04:49:13.612Z,10.70
2022-10-20T04:52:17.333Z,13.47
2022-10-20T04:55:20.494Z,13.27
2022-10-20T04:58:23.918Z,13.40
2022-10-20T05:01:29.685Z,13.67
2022-10-20T05:04:34.182Z,12.50
2022-10-20T05:07:37.553Z,11.50
2022-10-20T05:10:40.940Z,12.60
2022-10-20T05:13:44.472Z,12.90
2022-10-20T05:16:47.498Z,12.40
2022-10-20T05:19:51.998Z,12.63
2022-10-20T05:22:55.030Z,13.17
2022-10-20T05:25:58.118Z,12.07
2022-10-20T05:29:02.305Z,12.53
2022-10-20T05:32:05.907Z,9.03
2022-10-20T05:35:10.803Z,12.17
2022-10-20T05:38:13.881Z,11.90
2022-10-20T05:41:18.807Z,11.03
2022-10-20T05:44:22.079Z,11.40
2022-10-20T05:47:25.324Z,11.57
2022-10-20T05:50:30.821Z,10.47
2022-10-20T05:53:33.940Z,11.23
2022-10-20T05:56:37.093Z,12.07
2022-10-20T05:59:40.238Z,11.33
2022-10-20T06:02:43.375Z,10.10
2022-10-20T06:05:48.061Z,11.43
2022-10-20T06:08:54.239Z,10.93
2022-10-20T06:11:57.380Z,10.97
2022-10-20T06:15:00.574Z,10.20
2022-10-20T06:18:03.667Z,10.77
2022-10-20T06:21:12.332Z,9.93
2022-10-20T06:24:16.642Z,11.70
2022-10-20T06:27:19.787Z,10.70
2022-10-20T06:30:25.194Z,9.77
2022-10-20T06:33:31.322Z,11.03
2022-10-20T06:36:38.069Z,10.47
2022-10-20T06:39:41.230Z,9.93
2022-10-20T06:42:44.332Z,10.40
2022-10-20T06:45:55.393Z,9.70
2022-10-20T06:49:01.296Z,9.50
2022-10-20T06:52:06.143Z,9.20
2022-10-20T06:55:10.311Z,9.77
2022-10-20T06:58:13.510Z,10.03
2022-10-20T07:01:18.039Z,9.03
2022-10-20T07:04:21.152Z,9.30
2022-10-20T07:07:25.682Z,9.17
2022-10-20T07:10:28.803Z,9.70
2022-10-20T07:13:33.240Z,8.70
2022-10-20T07:16:38.543Z,8.57
2022-10-20T07:19:41.753Z,8.40
2022-10-20T07:22:46.366Z,8.67
2022-10-20T07:25:51.359Z,8.93
2022-10-20T07:28:57.585Z,8.60
2022-10-20T07:32:02.071Z,8.83
2022-10-20T07:35:06.021Z,8.60
2022-10-20T07:38:10.571Z,8.80
2022-10-20T07:41:14.163Z,8.73
2022-10-20T07:44:17.490Z,8.13
2022-10-20T07:47:21.149Z,8.07
2022-10-20T07:50:28.018Z,8.33
2022-10-20T07:53:32.656Z,9.83
2022-10-20T07:56:37.852Z,7.80
2022-10-20T07:59:41.140Z,8.20
2022-10-20T08:02:45.625Z,6.70
2022-10-20T08:05:48.856Z,7.57
2022-10-20T08:08:53.748Z,7.17
2022-10-20T08:11:56.934Z,6.70
2022-10-20T08:15:12.503Z,6.17
2022-10-20T08:18:23.172Z,6.87
2022-10-20T08:21:26.469Z,6.53
2022-10-20T08:24:31.744Z,6.40
2022-10-20T08:27:34.906Z,6.28
2022-10-20T08:30:38.524Z,6.25
2022-10-20T08:33:41.998Z,6.43
2022-10-20T08:36:45.248Z,6.17
2022-10-20T08:39:49.797Z,6.77
2022-10-20T08:42:53.689Z,6.43
2022-10-20T08:45:57.069Z,5.80
2022-10-20T08:49:00.932Z,6.28
2022-10-20T08:52:04.408Z,5.93
2022-10-20T08:58:28.377Z,6.30
2022-10-20T09:01:35.835Z,6.45
2022-10-20T09:04:45.914Z,5.25
2022-10-20T09:07:50.226Z,5.60
2022-10-20T09:10:56.465Z,5.60
2022-10-20T09:13:59.739Z,5.50
2022-10-20T09:17:03.342Z,4.93
2022-10-20T09:20:13.339Z,5.60
2022-10-20T09:23:39.419Z,5.45
2022-10-20T09:26:58.046Z,5.20
2022-10-20T09:30:15.796Z,5.32
2022-10-20T09:33:26.256Z,5.30
2022-10-20T09:36:32.691Z,5.50
2022-10-20T09:39:43.482Z,5.20
2022-10-20T09:42:52.010Z,5.13
2022-10-20T09:45:57.683Z,5.05
2022-10-20T09:49:00.963Z,4.60
2022-10-20T09:52:17.219Z,4.70
2022-10-20T09:55:27.668Z,5.15
2022-10-20T09:58:34.882Z,5.00
2022-10-20T10:01:54.585Z,5.10
2022-10-20T10:05:15.939Z,5.05
2022-10-20T10:08:20.082Z,5.50
2022-10-20T10:11:34.201Z,5.75
2022-10-20T10:14:40.267Z,4.47
2022-10-20T10:17:44.695Z,4.93
2022-10-20T10:20:48.001Z,4.78
2022-10-20T10:23:53.344Z,4.45
2022-10-20T10:26:57.788Z,4.88
2022-10-20T10:30:27.779Z,4.82
2022-10-20T10:33:33.157Z,4.30
2022-10-20T10:36:37.914Z,4.35
2022-10-20T10:39:42.793Z,4.70
2022-10-20T10:43:12.994Z,5.72
2022-10-20T10:46:21.129Z,4.78
2022-10-20T10:49:42.373Z,4.13
2022-10-20T10:52:56.897Z,4.15
2022-10-20T10:56:10.155Z,4.15
2022-10-20T10:59:19.194Z,4.00
2022-10-20T11:03:10.030Z,4.32
2022-10-20T11:06:20.531Z,4.63
2022-10-20T11:09:34.216Z,4.80
2022-10-20T11:12:50.912Z,4.50
2022-10-20T11:16:03.081Z,4.70
2022-10-20T11:19:35.546Z,4.28
2022-10-20T11:22:47.805Z,4.15
2022-10-20T11:25:55.967Z,4.10
2022-10-20T11:28:59.883Z,4.28
2022-10-20T11:32:13.165Z,4.25
2022-10-20T11:35:29.181Z,6.25
2022-10-20T11:38:40.498Z,5.82
2022-10-20T11:41:49.385Z,4.32
2022-10-20T11:44:53.706Z,4.03
2022-10-20T11:48:02.971Z,3.95
2022-10-20T11:51:30.497Z,3.38
2022-10-20T11:54:48.222Z,4.38
2022-10-20T11:58:04.409Z,3.83
2022-10-20T12:01:45.266Z,3.65
2022-10-20T12:05:16.495Z,3.83
2022-10-20T12:08:37.395Z,3.70
2022-10-20T12:11:50.498Z,3.90
2022-10-20T12:14:59.452Z,4.15
2022-10-20T12:18:06.628Z,3.60
2022-10-20T12:21:11.801Z,3.47
2022-10-20T12:24:37.980Z,3.20
2022-10-20T12:27:41.196Z,3.67
2022-10-20T12:30:46.462Z,3.97
2022-10-20T12:34:03.873Z,4.15
2022-10-20T12:37:18.066Z,4.10
2022-10-20T12:40:27.698Z,3.60
2022-10-20T12:43:38.676Z,3.65
2022-10-20T12:46:44.858Z,3.78
2022-10-20T12:49:57.943Z,3.67
2022-10-20T12:53:15.155Z,4.25
2022-10-20T12:56:22.304Z,3.33
2022-10-20T12:59:40.837Z,4.03
2022-10-20T13:02:51.732Z,3.58
2022-10-20T13:05:54.891Z,4.03
2022-10-20T13:09:22.602Z,3.97
2022-10-20T13:12:30.643Z,4.10
2022-10-20T13:15:37.982Z,3.83
2022-10-20T13:18:47.304Z,3.60
2022-10-20T13:21:51.668Z,3.90
2022-10-20T13:24:56.758Z,4.03
2022-10-20T13:28:07.859Z,4.28
2022-10-20T13:31:22.091Z,4.35
2022-10-20T13:34:31.926Z,4.18
2022-10-20T13:37:51.813Z,4.60
2022-10-20T13:41:03.179Z,4.10
2022-10-20T13:44:16.597Z,4.13
2022-10-20T13:47:36.897Z,3.50
2022-10-20T13:50:43.738Z,4.25
2022-10-20T13:53:50.176Z,3.92
2022-10-20T13:56:53.951Z,3.70
2022-10-20T14:00:00.575Z,4.03
2022-10-20T14:03:07.346Z,4.18
2022-10-20T14:06:35.641Z,4.25
2022-10-20T14:09:40.685Z,3.90
2022-10-20T14:12:47.218Z,4.32
2022-10-20T14:15:55.212Z,3.85
2022-10-20T14:19:02.945Z,3.95
2022-10-20T14:22:14.197Z,3.75
2022-10-20T14:25:18.138Z,4.07
2022-10-20T14:28:23.366Z,4.32
2022-10-20T14:31:28.369Z,3.92
2022-10-20T14:34:36.037Z,4.05
2022-10-20T14:37:41.721Z,3.60
2022-10-20T14:40:51.828Z,3.88
2022-10-20T14:44:03.380Z,5.47
2022-10-20T14:47:15.158Z,5.90
2022-10-20T14:50:24.402Z,5.43
2022-10-20T14:53:32.420Z,8.07
2022-10-20T14:56:43.951Z,6.38
2022-10-20T14:59:53.837Z,4.80
2022-10-20T15:03:01.672Z,5.22
2022-10-20T15:06:05.733Z,4.85
2022-10-20T15:09:19.527Z,4.30
2022-10-20T15:12:34.655Z,4.50
2022-10-20T15:15:39.563Z,4.40
2022-10-20T15:18:44.216Z,4.35
2022-10-20T15:21:48.181Z,4.72
2022-10-20T15:24:51.463Z,4.40
2022-10-20T15:27:56.451Z,5.28
2022-10-20T15:31:01.313Z,6.15
2022-10-20T15:34:05.933Z,5.47
2022-10-20T15:37:09.978Z,5.63
2022-10-20T15:40:13.706Z,5.30
2022-10-20T15:43:19.408Z,6.20
2022-10-20T15:46:23.066Z,6.47
2022-10-20T15:49:27.654Z,6.72
2022-10-20T15:52:30.834Z,6.70
2022-10-20T15:55:35.815Z,6.47
2022-10-20T15:58:39.943Z,6.30
2022-10-20T16:01:43.644Z,6.67
2022-10-20T16:04:48.229Z,6.07
2022-10-20T16:07:53.142Z,5.73
2022-10-20T16:10:56.873Z,5.97
2022-10-20T16:14:00.127Z,5.63
2022-10-20T16:17:03.589Z,6.53
2022-10-20T16:20:09.639Z,6.13
2022-10-20T16:23:12.848Z,6.10
2022-10-20T16:26:16.252Z,6.03
2022-10-20T16:29:19.493Z,6.80
2022-10-20T16:32:22.686Z,6.13
2022-10-20T16:35:27.319Z,6.83
2022-10-20T16:38:30.596Z,6.90
2022-10-20T16:41:33.828Z,6.67
2022-10-20T16:44:37.026Z,5.93
2022-10-20T16:47:40.402Z,6.50
2022-10-20T16:50:45.127Z,7.43
2022-10-20T16:53:48.460Z,6.70
2022-10-20T16:56:51.739Z,7.80
2022-10-20T16:59:54.853Z,7.33
2022-10-20T17:02:58.134Z,7.93
2022-10-20T17:06:04.774Z,8.43
2022-10-20T17:09:08.196Z,7.90
2022-10-20T17:12:11.517Z,10.00
2022-10-20T17:15:14.711Z,8.50
2022-10-20T17:18:18.005Z,9.07
2022-10-20T17:21:22.708Z,9.73
2022-10-20T17:24:25.893Z,9.63
2022-10-20T17:27:29.043Z,10.83
2022-10-20T17:30:32.307Z,11.47
2022-10-20T17:33:35.474Z,10.67
2022-10-20T17:36:40.114Z,10.33
2022-10-20T17:39:43.282Z,11.40
2022-10-20T17:42:46.483Z,12.10
2022-10-20T17:45:57.876Z,11.53
2022-10-20T17:49:02.173Z,12.63
2022-10-20T17:52:06.899Z,11.20
2022-10-20T17:55:10.439Z,12.80
2022-10-20T17:58:13.639Z,11.90
2022-10-20T18:01:19.172Z,13.60
2022-10-20T18:04:22.443Z,14.00
2022-10-20T18:07:27.624Z,12.33
2022-10-20T18:10:30.858Z,13.03
2022-10-20T18:13:34.090Z,12.40
2022-10-20T18:16:39.635Z,14.33
2022-10-20T18:19:43.837Z,13.77
2022-10-20T18:22:48.402Z,14.27
2022-10-20T18:25:51.567Z,13.53
2022-10-20T18:28:54.909Z,14.70
2022-10-20T18:31:58.098Z,14.13
2022-10-20T18:35:02.356Z,13.90
2022-10-20T18:38:07.004Z,14.97
2022-10-20T18:41:12.499Z,14.73
2022-10-20T18:44:17.338Z,15.93
2022-10-20T18:47:20.612Z,16.63
2022-10-20T18:50:23.835Z,19.07
2022-10-20T18:53:29.767Z,18.80
2022-10-20T18:56:33.163Z,19.47
2022-10-20T18:59:36.358Z,16.20
2022-10-20T19:02:39.623Z,16.70
2022-10-20T19:05:42.932Z,15.80
2022-10-20T19:08:52.694Z,16.27
2022-10-20T19:11:56.021Z,16.10
2022-10-20T19:14:59.224Z,15.77
2022-10-20T19:18:02.437Z,15.73
2022-10-20T19:21:07.241Z,16.43
2022-10-20T19:24:15.358Z,15.07
2022-10-20T19:27:26.691Z,11.60
2022-10-20T19:30:35.431Z,10.33
2022-10-20T19:33:38.642Z,10.27
2022-10-20T19:36:42.797Z,9.73
2022-10-20T19:39:47.435Z,9.77
2022-10-20T19:42:50.665Z,8.50
2022-10-20T19:45:53.896Z,8.63
2022-10-20T19:48:57.497Z,8.33
2022-10-20T19:52:01.032Z,9.07
2022-10-20T19:55:06.191Z,9.43
2022-10-20T20:01:18.834Z,8.27
2022-10-20T20:04:22.604Z,8.13
2022-10-20T20:07:25.837Z,8.57
2022-10-20T20:10:30.544Z,8.30
2022-10-20T20:13:33.785Z,8.17
2022-10-20T20:16:37.309Z,7.17
2022-10-20T20:19:40.859Z,6.53
2022-10-20T20:22:44.082Z,6.93
2022-10-20T20:25:48.751Z,6.50
2022-10-20T20:28:53.843Z,7.13
2022-10-20T20:31:57.015Z,7.07
2022-10-20T20:35:00.355Z,6.37
2022-10-20T20:38:03.711Z,5.73
2022-10-20T20:41:10.423Z,5.77
2022-10-20T20:44:16.143Z,5.73
2022-10-20T20:47:19.306Z,5.40
2022-10-20T20:50:22.547Z,5.73
2022-10-20T20:53:26.028Z,5.50
2022-10-20T20:56:30.869Z,5.90
2022-10-20T20:59:34.058Z,5.80
2022-10-20T21:02:37.366Z,5.87
2022-10-20T21:05:40.574Z,4.87
2022-10-20T21:08:46.461Z,4.57
2022-10-20T21:11:51.102Z,5.07
2022-10-20T21:14:54.203Z,4.13
2022-10-20T21:17:57.385Z,4.93
2022-10-20T21:21:06.875Z,4.70
2022-10-20T21:24:11.473Z,4.80
2022-10-20T21:27:15.922Z,5.00
2022-10-20T21:30:19.123Z,5.23
2022-10-20T21:33:22.394Z,5.20
2022-10-20T21:36:26.511Z,8.23
2022-10-20T21:42:34.133Z,4.43
2022-10-20T21:45:37.466Z,5.43
2022-10-20T21:48:40.635Z,4.20
2022-10-20T21:51:46.405Z,4.43
2022-10-20T21:54:49.553Z,4.60
2022-10-20T21:57:54.084Z,4.10
2022-10-20T22:00:57.344Z,4.53
2022-10-20T22:04:00.457Z,4.10
2022-10-20T22:07:03.645Z,4.40
2022-10-20T22:10:07.613Z,4.00
2022-10-20T22:13:12.126Z,3.77
2022-10-20T22:16:17.514Z,3.77
2022-10-20T22:19:23.312Z,3.77
2022-10-20T22:22:27.693Z,3.37
2022-10-20T22:25:30.811Z,3.43
2022-10-20T22:28:35.342Z,3.10
2022-10-20T22:31:38.715Z,3.37
2022-10-20T22:34:41.829Z,2.70
2022-10-20T22:37:45.015Z,3.40
2022-10-20T22:40:48.275Z,3.10
2022-10-20T22:43:53.065Z,2.73
2022-10-20T22:46:56.262Z,2.63
2022-10-20T22:49:59.460Z,2.80
2022-10-20T22:53:02.638Z,2.73
2022-10-20T22:56:07.647Z,3.07
2022-10-20T22:59:12.266Z,2.80
2022-10-20T23:02:15.434Z,2.70
2022-10-20T23:05:18.807Z,2.70
2022-10-20T23:08:22.012Z,3.00
2022-10-20T23:11:25.446Z,2.77
2022-10-20T23:14:29.973Z,2.93
2022-10-20T23:17:33.277Z,2.60
2022-10-20T23:20:36.498Z,2.73
2022-10-20T23:23:39.913Z,2.93
2022-10-20T23:26:43.570Z,2.47
2022-10-20T23:29:48.175Z,2.70
2022-10-20T23:32:51.371Z,2.77
2022-10-20T23:35:54.579Z,2.60
2022-10-20T23:38:57.783Z,2.50
2022-10-20T23:42:04.784Z,2.67
2022-10-20T23:45:12.600Z,3.00
2022-10-20T23:48:15.818Z,2.90
2022-10-20T23:51:19.039Z,3.23
2022-10-20T23:54:22.406Z,2.60
2022-10-20T23:57:25.609Z,3.27
